Gregoria Perez de Denis, Argentina
Current Conditions -  °F | °C
As of 9:00 PM on Wednesday 28 Jan 2015 (Local Time) from SARE Reporting Station
Broken Clouds Broken Clouds  
Wind Chill: 75°   Ceiling: 20000
Heat Index: 75°   Visibility: 6mi
Dew Point: 73°   Wind: 1mph
Humidity: 94%   Direction: 180°S
Pressure: 29.74"   Gusts: NA
Location:  28.43°S, 61.58°W
Report Text: SARE 290000Z 18001KT 9999 FEW056CB SCT100 BKN200 24/23 Q1007
Loading
Personal Weather Stations






























Interactive Weather Map New forecast layout! Learn more

10-Day Weather Forecast

Advertisements
Track Severe Weather on mobile